Padre Island National Seasho, Texas
Current Conditions -  °F | °C
As of 9:56 AM on Thursday 23 Oct 2014 (Local Time) from KNGP Reporting Station
Broken Clouds Broken Clouds  
Wind Chill: 73°   Ceiling: 15000
Heat Index: 73°   Visibility: 10mi
Dew Point: 68°   Wind: 16mph
Humidity: 84%   Direction: 30°NNE
Pressure: 30.1"   Gusts: NA
Location:  27.6599°N, 97.2972°W
Report Text: KNGP 231456Z 03014KT 10SM SCT035 SCT070 BKN150 BKN250 23/20 A3010 RMK AO2 SLP191 T02280200 51021
Loading
Personal Weather Stations






























Interactive Weather Map
Tropical Storm Tracking
New forecast layout! Learn more

10-Day Weather Forecast

Advertisements
Track Severe Weather on mobile